createdAt,value
2018-01-15T00:00:23.128Z,25.97
2018-01-15T00:02:49.422Z,26.20
2018-01-15T00:05:16.450Z,24.50
2018-01-15T00:07:42.737Z,24.40
2018-01-15T00:10:09.025Z,26.80
2018-01-15T00:12:36.068Z,26.40
2018-01-15T00:15:03.106Z,26.07
2018-01-15T00:17:30.151Z,26.17
2018-01-15T00:19:57.913Z,26.30
2018-01-15T00:22:31.575Z,25.63
2018-01-15T00:24:57.900Z,26.73
2018-01-15T00:27:24.190Z,25.50
2018-01-15T00:29:50.461Z,25.67
2018-01-15T00:32:16.761Z,23.73
2018-01-15T00:34:43.054Z,24.43
2018-01-15T00:37:09.344Z,25.03
2018-01-15T00:39:35.641Z,25.00
2018-01-15T00:42:02.688Z,25.57
2018-01-15T00:44:29.724Z,24.90
2018-01-15T00:46:56.003Z,25.30
2018-01-15T00:49:22.281Z,26.60
2018-01-15T00:51:49.325Z,25.40
2018-01-15T00:54:15.599Z,26.60
2018-01-15T00:56:41.881Z,24.47
2018-01-15T00:59:08.913Z,25.60
2018-01-15T01:01:35.211Z,25.87
2018-01-15T01:04:01.497Z,25.43
2018-01-15T01:06:27.824Z,26.60
2018-01-15T01:08:54.844Z,26.07
2018-01-15T01:11:21.145Z,25.30
2018-01-15T01:13:47.425Z,25.33
2018-01-15T01:16:14.471Z,24.23
2018-01-15T01:18:42.237Z,25.63
2018-01-15T01:21:08.516Z,24.60
2018-01-15T01:23:34.803Z,24.50
2018-01-15T01:26:01.840Z,24.83
2018-01-15T01:28:28.196Z,25.10
2018-01-15T01:30:55.244Z,26.00
2018-01-15T01:33:22.265Z,26.00
2018-01-15T01:35:48.549Z,25.97
2018-01-15T01:38:14.840Z,23.90
2018-01-15T01:40:41.130Z,24.90
2018-01-15T01:43:07.423Z,25.77
2018-01-15T01:45:33.716Z,26.07
2018-01-15T01:48:00.030Z,23.83
2018-01-15T01:50:26.325Z,25.40
2018-01-15T01:52:52.956Z,26.13
2018-01-15T01:55:19.260Z,24.37
2018-01-15T01:57:46.284Z,25.30
2018-01-15T02:00:12.740Z,26.43
2018-01-15T02:02:39.047Z,25.90
2018-01-15T02:05:05.353Z,25.13
2018-01-15T02:07:31.636Z,25.90
2018-01-15T02:09:58.429Z,27.23
2018-01-15T02:12:24.822Z,26.03
2018-01-15T02:14:51.112Z,26.00
2018-01-15T02:17:18.144Z,25.30
2018-01-15T02:19:44.460Z,26.00
2018-01-15T02:22:10.740Z,26.80
2018-01-15T02:24:37.789Z,24.27
2018-01-15T02:27:04.134Z,25.90
2018-01-15T02:29:30.444Z,26.50
2018-01-15T02:31:56.836Z,27.63
2018-01-15T02:34:23.174Z,25.37
2018-01-15T02:36:49.479Z,25.97
2018-01-15T02:39:15.798Z,25.27
2018-01-15T02:41:42.102Z,27.20
2018-01-15T02:44:08.417Z,26.23
2018-01-15T02:46:35.479Z,24.37
2018-01-15T02:49:02.494Z,25.57
2018-01-15T02:51:28.807Z,25.70
2018-01-15T02:53:55.097Z,26.80
2018-01-15T02:56:21.381Z,24.10
2018-01-15T02:58:47.656Z,24.20
2018-01-15T03:01:13.938Z,24.70
2018-01-15T03:03:40.979Z,25.27
2018-01-15T03:06:07.274Z,25.27
2018-01-15T03:08:33.805Z,24.57
2018-01-15T03:11:00.148Z,25.13
2018-01-15T03:13:26.435Z,25.80
2018-01-15T03:15:53.492Z,23.80
2018-01-15T03:18:20.510Z,25.97
2018-01-15T03:20:46.795Z,24.93
2018-01-15T03:23:13.093Z,24.70
2018-01-15T03:25:40.124Z,24.63
2018-01-15T03:28:06.627Z,23.67
2018-01-15T03:30:32.932Z,23.67
2018-01-15T03:32:59.235Z,25.50
2018-01-15T03:35:26.278Z,25.10
2018-01-15T03:37:53.317Z,26.70
2018-01-15T03:40:20.342Z,24.27
2018-01-15T03:42:48.546Z,25.07
2018-01-15T03:45:15.581Z,24.10
2018-01-15T03:47:41.874Z,26.20
2018-01-15T03:50:08.164Z,24.37
2018-01-15T03:52:34.461Z,25.87
2018-01-15T03:55:00.749Z,24.77
2018-01-15T03:57:27.045Z,25.97
2018-01-15T03:59:53.340Z,24.30
2018-01-15T04:02:19.664Z,24.57
2018-01-15T04:04:45.943Z,24.03
2018-01-15T04:07:12.982Z,24.90
2018-01-15T04:09:39.281Z,24.37
2018-01-15T04:12:05.617Z,25.87
2018-01-15T04:14:31.933Z,25.03
2018-01-15T04:16:59.699Z,26.30
2018-01-15T04:19:25.991Z,26.60
2018-01-15T04:21:52.297Z,24.87
2018-01-15T04:24:19.341Z,26.77
2018-01-15T04:26:46.374Z,23.70
2018-01-15T04:29:13.403Z,26.97
2018-01-15T04:31:39.668Z,24.10
2018-01-15T04:34:05.988Z,25.17
2018-01-15T04:36:33.061Z,24.83
2018-01-15T04:38:59.345Z,24.10
2018-01-15T04:41:25.612Z,25.80
2018-01-15T04:43:51.889Z,24.70
2018-01-15T04:46:18.184Z,23.43
2018-01-15T04:48:44.487Z,23.30
2018-01-15T04:51:11.520Z,25.40
2018-01-15T04:53:38.585Z,24.50
2018-01-15T04:56:05.600Z,24.60
2018-01-15T04:58:31.892Z,24.00
2018-01-15T05:00:58.190Z,26.60
2018-01-15T05:03:24.483Z,27.00
2018-01-15T05:05:50.794Z,24.53
2018-01-15T05:08:17.195Z,25.23
2018-01-15T05:10:43.530Z,24.50
2018-01-15T05:13:09.813Z,24.87
2018-01-15T05:15:36.135Z,25.90
2018-01-15T05:18:03.905Z,24.27
2018-01-15T05:20:30.210Z,26.00
2018-01-15T05:22:56.497Z,25.53
2018-01-15T05:25:22.808Z,24.93
2018-01-15T05:27:49.865Z,24.67
2018-01-15T05:30:16.914Z,24.70
2018-01-15T05:32:43.950Z,24.57
2018-01-15T05:35:11.004Z,26.20
2018-01-15T05:37:38.037Z,24.63
2018-01-15T05:40:05.097Z,23.73
2018-01-15T05:42:31.402Z,24.47
2018-01-15T05:44:57.695Z,23.77
2018-01-15T05:47:24.035Z,24.50
2018-01-15T05:49:50.316Z,25.83
2018-01-15T05:52:17.348Z,23.90
2018-01-15T05:54:44.357Z,24.20
2018-01-15T05:57:10.664Z,24.10
2018-01-15T05:59:36.933Z,26.73
2018-01-15T06:02:03.231Z,23.87
2018-01-15T06:04:29.524Z,25.07
2018-01-15T06:06:56.557Z,24.57
2018-01-15T06:09:23.581Z,24.00
2018-01-15T06:11:49.869Z,23.77
2018-01-15T06:14:16.132Z,23.90
2018-01-15T06:16:42.428Z,23.57
2018-01-15T06:19:08.695Z,25.90
2018-01-15T06:21:34.984Z,24.93
2018-01-15T06:24:01.300Z,25.87
2018-01-15T06:26:28.329Z,26.10
2018-01-15T06:28:54.601Z,24.10
2018-01-15T06:31:20.891Z,23.37
2018-01-15T06:33:47.936Z,25.03
2018-01-15T06:36:14.201Z,23.63
2018-01-15T06:38:40.505Z,24.50
2018-01-15T06:41:07.544Z,24.73
2018-01-15T06:43:33.833Z,24.77
2018-01-15T06:46:00.100Z,25.20
2018-01-15T06:48:26.414Z,24.10
2018-01-15T06:50:52.721Z,24.97
2018-01-15T06:53:19.024Z,24.03
2018-01-15T06:55:45.309Z,23.97
2018-01-15T06:58:12.364Z,25.67
2018-01-15T07:00:38.644Z,25.20
2018-01-15T07:03:04.949Z,24.60
2018-01-15T07:05:31.221Z,24.50
2018-01-15T07:07:57.521Z,24.90
2018-01-15T07:10:23.797Z,24.27
2018-01-15T07:12:50.084Z,27.40
2018-01-15T07:15:16.389Z,24.87
2018-01-15T07:17:43.427Z,25.60
2018-01-15T07:20:10.457Z,27.03
2018-01-15T07:22:36.758Z,26.03
2018-01-15T07:25:03.080Z,24.47
2018-01-15T07:27:29.378Z,25.17
2018-01-15T07:29:56.405Z,23.37
2018-01-15T07:32:23.442Z,23.37
2018-01-15T07:34:49.762Z,24.30
2018-01-15T07:37:16.043Z,24.07
2018-01-15T07:39:42.355Z,24.80
2018-01-15T07:42:09.381Z,23.50
2018-01-15T07:44:36.425Z,25.47
2018-01-15T07:47:02.712Z,23.57
2018-01-15T07:49:29.014Z,23.47
2018-01-15T07:51:56.042Z,24.17
2018-01-15T07:54:23.084Z,22.40
2018-01-15T07:56:50.138Z,24.47
2018-01-15T07:59:17.189Z,23.97
2018-01-15T08:01:44.210Z,24.37
2018-01-15T08:04:10.512Z,21.70
2018-01-15T08:06:36.813Z,23.20
2018-01-15T08:09:03.091Z,24.33
2018-01-15T08:11:29.365Z,20.67
2018-01-15T08:13:56.430Z,23.50
2018-01-15T08:16:23.460Z,23.90
2018-01-15T08:18:50.556Z,23.03
2018-01-15T08:21:16.855Z,22.63
2018-01-15T08:23:43.148Z,22.13
2018-01-15T08:26:09.439Z,24.43
2018-01-15T08:28:35.731Z,22.97
2018-01-15T08:31:02.029Z,23.60
2018-01-15T08:33:28.332Z,22.20
2018-01-15T08:35:54.660Z,21.23
2018-01-15T08:38:20.971Z,23.43
2018-01-15T08:40:48.021Z,21.20
2018-01-15T08:43:14.304Z,22.37
2018-01-15T08:45:40.612Z,21.57
2018-01-15T08:48:06.885Z,19.67
2018-01-15T08:50:33.216Z,21.57
2018-01-15T08:53:00.249Z,21.03
2018-01-15T08:55:26.521Z,21.50
2018-01-15T08:57:52.860Z,20.97
2018-01-15T09:00:19.148Z,21.43
2018-01-15T09:02:45.465Z,21.10
2018-01-15T09:05:12.478Z,20.60
2018-01-15T09:07:38.772Z,20.57
2018-01-15T09:10:05.054Z,21.07
2018-01-15T09:12:31.331Z,19.13
2018-01-15T09:14:57.627Z,21.00
2018-01-15T09:17:24.659Z,19.30
2018-01-15T09:19:52.511Z,19.90
2018-01-15T09:22:18.800Z,19.80
2018-01-15T09:24:45.086Z,18.27
2018-01-15T09:27:11.372Z,19.57
2018-01-15T09:29:37.684Z,20.30
2018-01-15T09:32:03.984Z,19.20
2018-01-15T09:34:30.292Z,19.00
2018-01-15T09:36:56.641Z,18.33
2018-01-15T09:39:22.929Z,19.00
2018-01-15T09:41:49.295Z,19.37
2018-01-15T09:44:15.584Z,18.90
2018-01-15T09:46:41.859Z,18.87
2018-01-15T09:49:08.155Z,19.27
2018-01-15T09:51:34.441Z,19.40
2018-01-15T09:54:01.459Z,19.00
2018-01-15T09:56:29.209Z,18.00
2018-01-15T09:58:55.508Z,19.00
2018-01-15T10:01:21.772Z,18.40
2018-01-15T10:03:48.090Z,19.10
2018-01-15T10:06:14.388Z,17.77
2018-01-15T10:08:40.689Z,18.47
2018-01-15T10:11:07.728Z,17.70
2018-01-15T10:13:34.760Z,18.37
2018-01-15T10:16:01.041Z,17.33
2018-01-15T10:18:27.331Z,19.00
2018-01-15T10:20:53.645Z,17.50
2018-01-15T10:23:19.949Z,16.40
2018-01-15T10:25:46.230Z,17.60
2018-01-15T10:28:12.519Z,17.10
2018-01-15T10:30:38.819Z,17.37
2018-01-15T10:33:05.112Z,16.60
2018-01-15T10:35:32.152Z,16.70
2018-01-15T10:37:58.431Z,16.53
2018-01-15T10:40:24.749Z,17.83
2018-01-15T10:42:51.078Z,16.43
2018-01-15T10:45:17.389Z,16.53
2018-01-15T10:47:44.412Z,16.90
2018-01-15T10:50:10.988Z,16.00
2018-01-15T10:52:37.269Z,17.40
2018-01-15T10:55:03.577Z,16.07
2018-01-15T10:57:29.879Z,16.60
2018-01-15T10:59:56.225Z,15.97
2018-01-15T11:02:22.503Z,16.80
2018-01-15T11:04:49.554Z,16.40
2018-01-15T11:07:16.580Z,16.20
2018-01-15T11:09:42.904Z,15.30
2018-01-15T11:12:09.272Z,14.00
2018-01-15T11:14:35.553Z,15.37
2018-01-15T11:17:01.851Z,16.60
2018-01-15T11:19:28.153Z,16.37
2018-01-15T11:21:55.177Z,16.20
2018-01-15T11:24:21.476Z,17.07
2018-01-15T11:26:47.789Z,16.63
2018-01-15T11:29:14.093Z,16.03
2018-01-15T11:31:41.127Z,16.67
2018-01-15T11:34:07.400Z,15.57
2018-01-15T11:36:33.720Z,16.60
2018-01-15T11:39:00.037Z,15.40
2018-01-15T11:41:26.364Z,15.07
2018-01-15T11:43:53.385Z,16.10
2018-01-15T11:46:19.762Z,15.77
2018-01-15T11:48:46.068Z,15.70
2018-01-15T11:51:13.108Z,16.07
2018-01-15T11:53:40.178Z,14.47
2018-01-15T11:56:06.460Z,15.17
2018-01-15T11:58:32.784Z,15.70
2018-01-15T12:00:59.107Z,15.70
2018-01-15T12:03:25.408Z,16.03
2018-01-15T12:05:51.736Z,16.00
2018-01-15T12:08:18.018Z,15.97
2018-01-15T12:10:44.600Z,14.70
2018-01-15T12:13:10.920Z,15.30
2018-01-15T12:15:37.218Z,15.13
2018-01-15T12:18:03.539Z,15.40
2018-01-15T12:20:29.826Z,16.23
2018-01-15T12:22:56.131Z,15.20
2018-01-15T12:25:23.154Z,16.37
2018-01-15T12:27:50.192Z,14.40
2018-01-15T12:30:16.487Z,14.63
2018-01-15T12:32:42.785Z,15.20
2018-01-15T12:35:09.804Z,15.30
2018-01-15T12:37:36.142Z,14.37
2018-01-15T12:40:03.171Z,14.50
2018-01-15T12:42:29.469Z,15.00
2018-01-15T12:44:55.738Z,14.53
2018-01-15T12:47:22.039Z,15.00
2018-01-15T12:49:48.341Z,14.10
2018-01-15T12:52:14.634Z,15.40
2018-01-15T12:54:41.697Z,14.40
2018-01-15T12:57:08.728Z,15.13
2018-01-15T12:59:35.765Z,15.63
2018-01-15T13:02:02.052Z,16.63
2018-01-15T13:04:28.332Z,15.27
2018-01-15T13:06:55.612Z,15.37
2018-01-15T13:09:21.948Z,14.80
2018-01-15T13:11:48.227Z,15.07
2018-01-15T13:14:14.529Z,16.13
2018-01-15T13:16:40.799Z,14.30
2018-01-15T13:19:07.089Z,14.70
2018-01-15T13:21:33.381Z,14.83
2018-01-15T13:24:00.425Z,16.83
2018-01-15T13:26:27.489Z,14.60
2018-01-15T13:28:53.751Z,15.00
2018-01-15T13:31:20.041Z,16.70
2018-01-15T13:33:46.316Z,17.37
2018-01-15T13:36:12.612Z,15.60
2018-01-15T13:38:38.895Z,15.13
2018-01-15T13:41:05.208Z,15.93
2018-01-15T13:43:31.504Z,15.50
2018-01-15T13:45:57.811Z,15.37
2018-01-15T13:48:24.122Z,14.43
2018-01-15T13:50:50.409Z,14.60
2018-01-15T13:53:16.695Z,15.20
2018-01-15T13:55:43.718Z,14.80
2018-01-15T13:58:10.073Z,16.87
2018-01-15T14:00:36.357Z,15.60
2018-01-15T14:03:02.644Z,15.70
2018-01-15T14:05:29.664Z,16.80
2018-01-15T14:07:56.694Z,16.63
2018-01-15T14:10:22.996Z,14.17
2018-01-15T14:12:49.289Z,15.10
2018-01-15T14:15:15.584Z,15.60
2018-01-15T14:17:41.875Z,16.10
2018-01-15T14:20:08.183Z,15.67
2018-01-15T14:22:34.485Z,17.00
2018-01-15T14:25:01.533Z,16.00
2018-01-15T14:27:28.573Z,15.27
2018-01-15T14:29:54.850Z,17.00
2018-01-15T14:32:21.153Z,15.67
2018-01-15T14:34:48.177Z,15.00
2018-01-15T14:37:14.486Z,16.20
2018-01-15T14:39:40.763Z,15.97
2018-01-15T14:42:07.076Z,16.10
2018-01-15T14:44:33.359Z,16.93
2018-01-15T14:46:59.658Z,16.30
2018-01-15T14:49:26.712Z,16.40
2018-01-15T14:51:53.021Z,16.60
2018-01-15T14:54:20.064Z,16.10
2018-01-15T14:56:47.119Z,15.73
2018-01-15T14:59:14.149Z,15.83
2018-01-15T15:01:40.444Z,15.60
2018-01-15T15:04:06.719Z,15.40
2018-01-15T15:06:33.791Z,15.37
2018-01-15T15:09:00.086Z,15.77
2018-01-15T15:11:26.418Z,15.13
2018-01-15T15:13:52.725Z,16.07
2018-01-15T15:16:19.028Z,15.17
2018-01-15T15:18:45.361Z,16.93
2018-01-15T15:21:11.649Z,16.23
2018-01-15T15:23:38.681Z,15.10
2018-01-15T15:26:04.980Z,15.83
2018-01-15T15:28:31.267Z,13.90
2018-01-15T15:30:58.295Z,15.40
2018-01-15T15:33:25.328Z,15.87
2018-01-15T15:35:51.625Z,14.60
2018-01-15T15:38:18.655Z,15.33
2018-01-15T15:40:44.948Z,15.03
2018-01-15T15:43:11.993Z,16.37
2018-01-15T15:45:38.293Z,16.97
2018-01-15T15:48:04.588Z,15.17
2018-01-15T15:50:30.909Z,15.53
2018-01-15T15:52:57.194Z,16.37
2018-01-15T15:55:23.501Z,15.10
2018-01-15T15:57:49.767Z,15.67
2018-01-15T16:00:16.829Z,14.57
2018-01-15T16:02:43.865Z,15.73
2018-01-15T16:05:10.909Z,15.93
2018-01-15T16:07:37.208Z,16.27
2018-01-15T16:10:03.539Z,16.77
2018-01-15T16:12:29.855Z,15.20
2018-01-15T16:14:56.128Z,15.10
2018-01-15T16:17:23.165Z,14.93
2018-01-15T16:19:49.472Z,15.27
2018-01-15T16:22:28.187Z,14.80
2018-01-15T16:24:54.467Z,15.30
2018-01-15T16:27:21.512Z,14.63
2018-01-15T16:29:48.558Z,15.70
2018-01-15T16:32:15.603Z,13.50
2018-01-15T16:34:42.652Z,15.10
2018-01-15T16:37:08.989Z,14.77
2018-01-15T16:39:35.312Z,15.30
2018-01-15T16:42:02.380Z,14.63
2018-01-15T16:44:28.674Z,14.80
2018-01-15T16:46:56.432Z,14.67
2018-01-15T16:49:22.739Z,13.90
2018-01-15T16:51:49.058Z,14.90
2018-01-15T16:54:15.351Z,13.80
2018-01-15T16:56:42.408Z,14.73
2018-01-15T16:59:08.695Z,14.70
2018-01-15T17:01:35.014Z,14.63
2018-01-15T17:04:01.312Z,14.33
2018-01-15T17:06:27.619Z,13.97
2018-01-15T17:08:54.280Z,13.90
2018-01-15T17:11:20.582Z,12.90
2018-01-15T17:13:55.687Z,13.13
2018-01-15T17:16:21.965Z,14.20
2018-01-15T17:18:48.237Z,13.97
2018-01-15T17:21:14.549Z,14.23
2018-01-15T17:23:40.840Z,13.93
2018-01-15T17:26:07.883Z,15.00
2018-01-15T17:28:34.901Z,14.80
2018-01-15T17:31:01.211Z,15.00
2018-01-15T17:33:27.496Z,14.70
2018-01-15T17:35:54.547Z,14.00
2018-01-15T17:38:21.574Z,15.00
2018-01-15T17:40:48.601Z,14.60
2018-01-15T17:43:14.889Z,14.80
2018-01-15T17:45:41.520Z,15.07
2018-01-15T17:48:07.852Z,14.80
2018-01-15T17:50:34.131Z,14.17
2018-01-15T17:53:00.445Z,13.77
2018-01-15T17:55:26.766Z,15.37
2018-01-15T17:57:53.069Z,14.83
2018-01-15T18:00:19.365Z,16.10
2018-01-15T18:02:46.426Z,15.57
2018-01-15T18:05:12.729Z,15.63
2018-01-15T18:07:39.032Z,15.00
2018-01-15T18:10:05.305Z,15.57
2018-01-15T18:12:32.351Z,13.83
2018-01-15T18:14:58.657Z,14.70
2018-01-15T18:17:24.965Z,15.37
2018-01-15T18:19:51.253Z,14.10
2018-01-15T18:22:17.557Z,12.83
2018-01-15T18:24:43.829Z,15.03
2018-01-15T18:27:10.159Z,13.20
2018-01-15T18:29:36.445Z,14.87
2018-01-15T18:32:02.768Z,13.80
2018-01-15T18:34:29.047Z,14.13
2018-01-15T18:36:55.353Z,14.80
2018-01-15T18:39:22.400Z,13.90
2018-01-15T18:41:49.419Z,14.87
2018-01-15T18:44:15.692Z,14.03
2018-01-15T18:46:41.975Z,13.70
2018-01-15T18:49:08.302Z,13.53
2018-01-15T18:51:35.372Z,14.83
2018-01-15T18:54:02.425Z,14.20
2018-01-15T18:56:28.728Z,14.67
2018-01-15T18:58:55.058Z,14.00
2018-01-15T19:01:21.344Z,14.37
2018-01-15T19:03:47.668Z,13.83
2018-01-15T19:06:13.958Z,12.83
2018-01-15T19:08:41.071Z,14.27
2018-01-15T19:11:08.106Z,14.47
2018-01-15T19:13:34.382Z,13.60
2018-01-15T19:16:00.740Z,14.13
2018-01-15T19:18:27.124Z,13.73
2018-01-15T19:20:53.447Z,13.83
2018-01-15T19:23:19.732Z,12.80
2018-01-15T19:25:46.026Z,14.87
2018-01-15T19:28:12.324Z,14.07
2018-01-15T19:30:38.715Z,13.73
2018-01-15T19:33:05.766Z,14.40
2018-01-15T19:38:32.840Z,13.07
2018-01-15T19:40:59.192Z,14.23
2018-01-15T19:43:29.463Z,14.43
2018-01-15T19:46:01.786Z,14.30
2018-01-15T19:48:34.424Z,16.10
2018-01-15T19:51:07.609Z,14.83
2018-01-15T19:53:39.991Z,15.00
2018-01-15T19:56:13.383Z,16.00
2018-01-15T19:58:45.875Z,15.37
2018-01-15T20:01:18.429Z,15.60
2018-01-15T20:03:50.878Z,15.67
2018-01-15T20:06:23.319Z,16.03
2018-01-15T20:08:55.811Z,18.00
2018-01-15T20:11:22.224Z,16.63
2018-01-15T20:13:48.544Z,16.53
2018-01-15T20:16:15.211Z,18.50
2018-01-15T20:18:41.620Z,18.43
2018-01-15T20:21:08.012Z,17.40
2018-01-15T20:23:34.544Z,17.20
2018-01-15T20:26:00.915Z,19.00
2018-01-15T20:28:27.279Z,17.17
2018-01-15T20:30:53.651Z,17.60
2018-01-15T20:33:20.714Z,19.60
2018-01-15T20:35:47.798Z,17.03
2018-01-15T20:38:14.076Z,16.37
2018-01-15T20:40:40.634Z,17.97
2018-01-15T20:43:06.939Z,17.83
2018-01-15T20:45:34.675Z,17.27
2018-01-15T20:48:01.208Z,17.90
2018-01-15T20:50:28.041Z,18.03
2018-01-15T20:52:54.788Z,17.90
2018-01-15T20:55:21.161Z,17.90
2018-01-15T20:57:48.246Z,16.67
2018-01-15T21:00:14.673Z,17.40
2018-01-15T21:02:41.079Z,18.27
2018-01-15T21:05:07.404Z,17.87
2018-01-15T21:07:34.433Z,18.70
2018-01-15T21:10:00.893Z,19.10
2018-01-15T21:12:28.003Z,18.20
2018-01-15T21:14:54.366Z,17.07
2018-01-15T21:17:20.713Z,17.00
2018-01-15T21:19:47.043Z,17.40
2018-01-15T21:22:13.338Z,18.23
2018-01-15T21:24:39.737Z,17.93
2018-01-15T21:27:06.094Z,17.73
2018-01-15T21:29:33.234Z,17.83
2018-01-15T21:32:00.419Z,16.67
2018-01-15T21:34:27.482Z,18.60
2018-01-15T21:36:54.057Z,16.77
2018-01-15T21:39:20.419Z,16.73
2018-01-15T21:41:47.526Z,16.67
2018-01-15T21:44:13.887Z,17.37
2018-01-15T21:46:40.240Z,17.40
2018-01-15T21:49:06.640Z,16.77
2018-01-15T21:51:33.851Z,16.20
2018-01-15T21:54:00.161Z,17.37
2018-01-15T21:56:27.349Z,17.60
2018-01-15T21:58:53.646Z,17.00
2018-01-15T22:01:19.986Z,15.70
2018-01-15T22:03:46.333Z,15.70
2018-01-15T22:06:12.904Z,17.43
2018-01-15T22:08:40.753Z,16.80
2018-01-15T22:11:07.051Z,17.80
2018-01-15T22:13:33.354Z,16.53
2018-01-15T22:15:59.657Z,17.70
2018-01-15T22:18:26.071Z,17.50
2018-01-15T22:20:52.683Z,18.67
2018-01-15T22:23:18.980Z,18.77
2018-01-15T22:25:45.300Z,17.27
2018-01-15T22:28:11.671Z,18.30
2018-01-15T22:30:37.961Z,18.53
2018-01-15T22:33:04.286Z,18.00
2018-01-15T22:35:31.341Z,18.80
2018-01-15T22:37:58.444Z,18.37
2018-01-15T22:40:24.798Z,19.03
2018-01-15T22:42:51.093Z,18.63
2018-01-15T22:45:17.427Z,18.90
2018-01-15T22:47:43.779Z,20.40
2018-01-15T22:50:10.107Z,19.20
2018-01-15T22:52:36.385Z,20.27
2018-01-15T22:55:03.575Z,20.47
2018-01-15T22:57:30.617Z,20.00
2018-01-15T22:59:56.915Z,18.80
2018-01-15T23:02:23.270Z,18.47
2018-01-15T23:04:49.609Z,21.10
2018-01-15T23:07:15.923Z,20.67
2018-01-15T23:09:42.270Z,20.83
2018-01-15T23:12:08.560Z,21.63
2018-01-15T23:14:34.857Z,21.10
2018-01-15T23:17:01.170Z,20.00
2018-01-15T23:19:28.224Z,21.37
2018-01-15T23:21:54.558Z,20.03
2018-01-15T23:24:20.884Z,21.80
2018-01-15T23:26:47.303Z,20.90
2018-01-15T23:29:13.587Z,21.87
2018-01-15T23:31:40.660Z,20.50
2018-01-15T23:34:06.945Z,21.37
2018-01-15T23:36:33.237Z,20.43
2018-01-15T23:38:59.526Z,22.77
2018-01-15T23:41:26.527Z,23.50
2018-01-15T23:43:52.825Z,22.67
2018-01-15T23:46:19.126Z,23.33
2018-01-15T23:48:46.167Z,23.97
2018-01-15T23:51:12.439Z,24.30
2018-01-15T23:53:38.729Z,24.27
2018-01-15T23:56:05.744Z,25.63
2018-01-15T23:58:32.036Z,24.07
